Orbital elements of COSMOS 1823 DEB
| Launched | 19 February 1987 |
| Flight ended | – |
| Launch site | Plesetsk Missile and Space Complex, Russia |
| Owner | Commonwealth of Independent States (former USSR) |
| NORAD ID | 18801 |
| Date fetched |
Epoch osculation |
Inc. [°] |
Ecc. | RA asc node [hr] |
Arg Peri. [°] |
Mean anom [°] |
Mean motion [rev/day] |
Abs. mag |
| Date fetched |
Epoch osculation |
Inc. [°] |
Ecc. | RA asc node [hr] |
Arg Peri. [°] |
Mean anom [°] |
Mean motion [rev/day] |
Abs. mag |
| 2026 May 04 17:57 | 2026 Apr 30 05:52:31 | 73.1254 | 0.01298 | 12.9747 | 21.9666 | 45.7412 | 12.75525 | – |
| 2026 May 03 17:57 | 2026 Apr 30 05:52:31 | 73.1254 | 0.01298 | 12.9747 | 21.9666 | 45.7412 | 12.75525 | – |
| 2026 May 02 17:57 | 2026 Apr 30 05:52:31 | 73.1254 | 0.01298 | 12.9747 | 21.9666 | 45.7412 | 12.75525 | – |
| 2026 May 01 17:56 | 2026 Apr 30 05:52:31 | 73.1254 | 0.01298 | 12.9747 | 21.9666 | 45.7412 | 12.75525 | – |
| 2026 Apr 30 17:56 | 2026 Apr 30 05:52:31 | 73.1254 | 0.01298 | 12.9747 | 21.9666 | 45.7412 | 12.75525 | – |
| 2026 Apr 29 17:57 | 2026 Apr 24 06:46:59 | 73.1257 | 0.01298 | 13.5590 | 30.8472 | 45.7412 | 12.75525 | – |
| 2026 Apr 28 17:56 | 2026 Apr 24 06:46:59 | 73.1257 | 0.01298 | 13.5590 | 30.8472 | 45.7412 | 12.75525 | – |
| 2026 Apr 27 17:58 | 2026 Apr 24 06:46:59 | 73.1257 | 0.01298 | 13.5590 | 30.8472 | 45.7412 | 12.75525 | – |
| 2026 Apr 26 17:58 | 2026 Apr 24 06:46:59 | 73.1257 | 0.01298 | 13.5590 | 30.8472 | 45.7412 | 12.75525 | – |
| 2026 Apr 25 17:58 | 2026 Apr 24 06:46:59 | 73.1257 | 0.01298 | 13.5590 | 30.8472 | 45.7412 | 12.75525 | – |
| 2026 Apr 24 17:59 | 2026 Apr 24 06:46:59 | 73.1257 | 0.01298 | 13.5590 | 30.8472 | 45.7412 | 12.75525 | – |
| 2026 Apr 23 17:57 | 2026 Apr 17 07:07:01 | 73.1266 | 0.01298 | 14.2436 | 41.2473 | 45.7412 | 12.75525 | – |
| 2026 Apr 22 17:57 | 2026 Apr 17 07:07:01 | 73.1266 | 0.01298 | 14.2436 | 41.2473 | 45.7412 | 12.75525 | – |
| 2026 Apr 21 17:57 | 2026 Apr 17 07:07:01 | 73.1266 | 0.01298 | 14.2436 | 41.2473 | 45.7412 | 12.75525 | – |
| 2026 Apr 20 17:57 | 2026 Apr 17 07:07:01 | 73.1266 | 0.01298 | 14.2436 | 41.2473 | 45.7412 | 12.75525 | – |
| 2026 Apr 19 17:58 | 2026 Apr 17 07:07:01 | 73.1266 | 0.01298 | 14.2436 | 41.2473 | 45.7412 | 12.75525 | – |
| 2026 Apr 18 17:56 | 2026 Apr 13 07:07:41 | 73.1278 | 0.01299 | 14.6357 | 47.1877 | 45.7412 | 12.75525 | – |
| 2026 Apr 16 17:57 | 2026 Apr 13 07:07:41 | 73.1278 | 0.01299 | 14.6357 | 47.1877 | 45.7412 | 12.75525 | – |
| 2026 Apr 14 17:57 | 2026 Apr 13 07:07:41 | 73.1278 | 0.01299 | 14.6357 | 47.1877 | 45.7412 | 12.75525 | – |
| 2026 Apr 13 17:57 | 2026 Apr 13 07:07:41 | 73.1278 | 0.01299 | 14.6357 | 47.1877 | 45.7412 | 12.75525 | – |
| 2026 Apr 12 17:57 | 2026 Apr 08 08:32:58 | 73.1266 | 0.01300 | 15.1198 | 54.5349 | 45.7412 | 12.75525 | – |
| 2026 Apr 11 17:57 | 2026 Apr 08 08:32:58 | 73.1266 | 0.01300 | 15.1198 | 54.5349 | 45.7412 | 12.75525 | – |
| 2026 Apr 10 17:58 | 2026 Apr 08 08:32:58 | 73.1266 | 0.01300 | 15.1198 | 54.5349 | 45.7412 | 12.75525 | – |
| 2026 Apr 09 18:01 | 2026 Apr 08 08:32:58 | 73.1266 | 0.01300 | 15.1198 | 54.5349 | 45.7412 | 12.75525 | – |
| 2026 Apr 08 17:57 | 2026 Apr 08 08:32:58 | 73.1266 | 0.01300 | 15.1198 | 54.5349 | 45.7412 | 12.75525 | – |
| 2026 Apr 07 17:57 | 2026 Apr 01 09:02:28 | 73.1261 | 0.01302 | 15.8039 | 64.8558 | 45.7412 | 12.75525 | – |